Willow, Michigan
Current Conditions -  °F | °C
As of 1:53 AM on Sunday 26 Oct 2014 (Local Time) from KDTW Reporting Station
Clear Clear  
Wind Chill: 51°   Ceiling: Unl
Heat Index: 51°   Visibility: 10mi
Dew Point: 32°   Wind: 9mph
Humidity: 48%   Direction: 280°W
Pressure: 29.85"   Gusts: NA
Location:  42.1166°N, 83.4023°W
Report Text: KDTW 260553Z 28008KT 10SM CLR 11/00 A2985 RMK AO2 SLP106 T01060000 10156 20100 53007
Loading
Personal Weather Stations






























Interactive Weather Map
Tropical Storm Tracking
New forecast layout! Learn more

10-Day Weather Forecast

Advertisements
Track Severe Weather on mobile